Cynthiana, KY (41031)

6:53 AM EST on February 20, 2017 (GMT -0500)
Cynthiana | | Change Station
Active Advisory: Dense Fog Advisory

Elev 0 ft 38.39 °N, 84.27 °W | Updated 2 minutes ago

Fog
Fog
35.8 °F
Feels Like 36 °F
N
1.2
Wind Variable Wind from NNW
Gusts 2.5 mph

Today
High -- | Low -- °F
--% Chance of Precip.
Yesterday
High -- | Low -- °F
Precip. -- in
Pressure 30.23 in
Visibility 0.5 miles
Clouds Overcast 200 ft
Windchill 36 °F
Dew Point 34 °F
Humidity 92%
Rainfall 0.00 in
Snow Depth Not available.
7:21 AM 6:21 PM
Waning Crescent, 34% visible
METAR KIOB 201135Z AUTO 00000KT 1/2SM FG OVC002 01/01 A3023 RMK AO2
Pressure 30.23 in
Visibility 0.5 miles
Clouds Overcast 200 ft
Windchill 36 °F
Dew Point 34 °F
Humidity 92%
Rainfall 0.00 in
Snow Depth Not available.
7:21 AM 6:21 PM
Waning Crescent, 34% visible
METAR KIOB 201135Z AUTO 00000KT 1/2SM FG OVC002 01/01 A3023 RMK AO2

Get Your Daily Forecast Email!

Thanks for signing up!

Be on the lookout for a verification email in your inbox.

You'll start receiving the daily forecast at 8 AM.

×

10-Day Weather Forecast

Almanac

Astronomy

Feb. 20, 2017 Rise Set
Actual Time
Civil Twilight
Nautical Twilight
Astronomical Twilight
Moon
Length of Visible Light
Length of Day
Tomorrow will be .
, % of the Moon is Illuminated

Today's Extremes

State Highs State Lows

Community

WunderPhotos

Upload Photos

1,962,540 photos uploaded!

WunderBlog® & News

Nearby

Air Quality

  Air Quality AQ Index Pollutant
Not available.

Snow Depth

Station Depth Elevation

Earthquake Activity

City Distance Mag. Time & Date
Minimum magnitude displayed is 2.5.

Coastal Water Temperatures

Place Temperature

Stations

Nearby Weather Stations

Station Location Temp. Windchill Dew Point Humidity Wind Precip. Elev Updated Type
                   

Watches & Warnings

Dense Fog Advisory
Issued: 2:11 AM CST Feb. 20, 2017 – National Weather Service

... Dense fog advisory remains in effect until 9 am EST /8 am CST/
this morning...

* visibility... will drop to one quarter mile or less at times.

* Impacts... those going to work or school in the morning may
need to allow extra time to reach their destination.

Precautionary/preparedness actions...

A dense fog advisory means visibilities will frequently be
reduced to less than one quarter mile. If driving... slow down...
use your low beam headlights... and leave plenty of distance ahead
of you.



Eer